createdAt,value
2019-01-25T00:00:21.424Z,-0.40
2019-01-25T00:02:51.353Z,-0.40
2019-01-25T00:05:21.656Z,-0.40
2019-01-25T00:07:51.414Z,-0.40
2019-01-25T00:10:21.662Z,-0.40
2019-01-25T00:12:53.242Z,-0.40
2019-01-25T00:15:22.942Z,-0.50
2019-01-25T00:17:52.872Z,-0.40
2019-01-25T00:20:22.761Z,-0.40
2019-01-25T00:22:54.097Z,-0.50
2019-01-25T00:25:24.281Z,-0.40
2019-01-25T00:27:54.228Z,-0.40
2019-01-25T00:30:24.197Z,-0.40
2019-01-25T00:32:54.021Z,-0.40
2019-01-25T00:35:24.060Z,-0.40
2019-01-25T00:37:53.965Z,-0.40
2019-01-25T00:40:24.249Z,-0.40
2019-01-25T00:42:53.933Z,-0.40
2019-01-25T00:45:23.775Z,-0.40
2019-01-25T00:47:53.845Z,-0.40
2019-01-25T00:50:24.232Z,-0.40
2019-01-25T00:52:54.525Z,-0.40
2019-01-25T00:55:24.332Z,-0.40
2019-01-25T00:57:54.464Z,-0.40
2019-01-25T01:00:25.951Z,-0.40
2019-01-25T01:02:56.081Z,-0.40
2019-01-25T01:05:26.247Z,-0.40
2019-01-25T01:07:56.558Z,-0.40
2019-01-25T01:10:26.371Z,-0.40
2019-01-25T01:12:56.683Z,-0.40
2019-01-25T01:15:26.895Z,-0.30
2019-01-25T01:17:56.882Z,-0.30
2019-01-25T01:20:28.480Z,-0.40
2019-01-25T01:22:58.419Z,-0.30
2019-01-25T01:25:28.611Z,-0.30
2019-01-25T01:27:58.769Z,-0.30
2019-01-25T01:30:28.848Z,-0.30
2019-01-25T01:32:58.927Z,-0.30
2019-01-25T01:35:28.929Z,-0.30
2019-01-25T01:37:59.398Z,-0.30
2019-01-25T01:40:29.158Z,-0.30
2019-01-25T01:43:00.161Z,-0.30
2019-01-25T01:45:30.096Z,-0.30
2019-01-25T01:47:59.921Z,-0.30
2019-01-25T01:50:30.046Z,-0.30
2019-01-25T01:53:00.656Z,-0.40
2019-01-25T01:55:30.685Z,-0.40
2019-01-25T01:58:00.964Z,-0.30
2019-01-25T02:00:31.047Z,-0.30
2019-01-25T02:03:00.917Z,-0.20
2019-01-25T02:05:31.127Z,-0.20
2019-01-25T02:08:01.062Z,-0.20
2019-01-25T02:10:30.809Z,-0.20
2019-01-25T02:13:00.756Z,-0.30
2019-01-25T02:15:34.053Z,-0.30
2019-01-25T02:18:03.929Z,-0.30
2019-01-25T02:20:33.627Z,-0.20
2019-01-25T02:23:03.716Z,-0.20
2019-01-25T02:25:33.605Z,-0.20
2019-01-25T02:28:03.748Z,-0.20
2019-01-25T02:30:33.717Z,-0.20
2019-01-25T02:33:03.622Z,-0.20
2019-01-25T02:35:34.055Z,-0.20
2019-01-25T02:38:03.900Z,-0.20
2019-01-25T02:40:39.204Z,-0.20
2019-01-25T02:43:05.906Z,-0.30
2019-01-25T02:45:35.861Z,-0.20
2019-01-25T02:48:05.945Z,-0.20
2019-01-25T02:50:37.577Z,-0.20
2019-01-25T02:53:07.826Z,-0.20
2019-01-25T02:55:37.744Z,-0.20
2019-01-25T02:58:07.910Z,-0.20
2019-01-25T03:00:37.887Z,-0.20
2019-01-25T03:03:07.649Z,-0.20
2019-01-25T03:05:37.755Z,-0.20
2019-01-25T03:08:07.702Z,-0.10
2019-01-25T03:10:37.940Z,-0.10
2019-01-25T03:13:07.796Z,-0.10
2019-01-25T03:15:38.551Z,-0.10
2019-01-25T03:18:08.797Z,-0.10
2019-01-25T03:20:38.813Z,-0.10
2019-01-25T03:23:08.805Z,-0.10
2019-01-25T03:25:38.550Z,-0.10
2019-01-25T03:28:08.427Z,-0.10
2019-01-25T03:30:38.313Z,-0.10
2019-01-25T03:33:08.082Z,-0.10
2019-01-25T03:35:37.865Z,-0.10
2019-01-25T03:38:07.928Z,-0.10
2019-01-25T03:40:37.709Z,0.00
2019-01-25T03:43:07.833Z,-0.10
2019-01-25T03:45:37.762Z,-0.10
2019-01-25T03:48:07.987Z,0.00
2019-01-25T03:50:38.061Z,0.00
2019-01-25T03:53:07.974Z,0.00
2019-01-25T03:55:38.077Z,0.00
2019-01-25T03:58:07.889Z,0.00
2019-01-25T04:00:37.825Z,0.00
2019-01-25T04:03:07.925Z,0.00
2019-01-25T04:05:37.868Z,0.00
2019-01-25T04:08:10.735Z,0.00
2019-01-25T04:10:40.447Z,0.00
2019-01-25T04:13:10.422Z,0.00
2019-01-25T04:15:40.350Z,0.00
2019-01-25T04:18:10.325Z,0.00
2019-01-25T04:20:40.441Z,0.10
2019-01-25T04:23:10.488Z,0.10
2019-01-25T04:25:40.305Z,0.10
2019-01-25T04:28:11.353Z,0.10
2019-01-25T04:30:41.178Z,0.10
2019-01-25T04:33:11.106Z,0.10
2019-01-25T04:35:40.930Z,0.10
2019-01-25T04:38:10.909Z,0.10
2019-01-25T04:40:40.934Z,0.10
2019-01-25T04:43:10.773Z,0.10
2019-01-25T04:45:40.672Z,0.10
2019-01-25T04:48:15.255Z,0.00
2019-01-25T04:50:45.430Z,0.00
2019-01-25T04:53:15.554Z,0.00
2019-01-25T04:55:46.691Z,0.00
2019-01-25T04:58:18.216Z,0.00
2019-01-25T05:00:48.792Z,0.00
2019-01-25T05:03:18.677Z,0.10
2019-01-25T05:05:48.671Z,0.10
2019-01-25T05:08:22.518Z,0.20
2019-01-25T05:10:52.751Z,0.20
2019-01-25T05:13:22.529Z,0.20
2019-01-25T05:15:52.826Z,0.10
2019-01-25T05:18:22.754Z,0.10
2019-01-25T05:20:52.542Z,0.10
2019-01-25T05:23:22.385Z,0.10
2019-01-25T05:25:52.423Z,0.10
2019-01-25T05:28:22.566Z,0.10
2019-01-25T05:31:06.999Z,0.10
2019-01-25T05:33:37.160Z,0.10
2019-01-25T05:36:13.162Z,0.00
2019-01-25T05:38:48.073Z,0.10
2019-01-25T05:41:18.023Z,0.10
2019-01-25T05:43:48.288Z,0.10
2019-01-25T05:46:18.466Z,0.10
2019-01-25T05:48:48.550Z,0.10
2019-01-25T05:51:18.791Z,0.20
2019-01-25T05:53:50.905Z,0.10
2019-01-25T05:56:21.024Z,0.20
2019-01-25T05:58:51.339Z,0.20
2019-01-25T06:01:21.153Z,0.30
2019-01-25T06:03:51.122Z,0.30
2019-01-25T06:06:21.061Z,0.30
2019-01-25T06:08:51.188Z,0.30
2019-01-25T06:11:21.135Z,0.30
2019-01-25T06:13:51.181Z,0.30
2019-01-25T06:16:21.076Z,0.30
2019-01-25T06:18:51.118Z,0.30
2019-01-25T06:21:21.157Z,0.30
2019-01-25T06:23:55.304Z,0.30
2019-01-25T06:26:25.440Z,0.30
2019-01-25T06:28:57.537Z,0.40
2019-01-25T06:31:27.328Z,0.50
2019-01-25T06:33:57.493Z,0.40
2019-01-25T06:36:27.610Z,0.40
2019-01-25T06:38:57.564Z,0.40
2019-01-25T06:41:27.319Z,0.40
2019-01-25T06:43:57.265Z,0.50
2019-01-25T06:46:27.554Z,0.40
2019-01-25T06:48:57.763Z,0.40
2019-01-25T06:51:27.672Z,0.40
2019-01-25T06:53:57.916Z,0.40
2019-01-25T06:56:28.133Z,0.40
2019-01-25T06:59:12.517Z,0.40
2019-01-25T07:01:55.306Z,0.40
2019-01-25T07:04:25.458Z,0.40
2019-01-25T07:06:55.561Z,0.40
2019-01-25T07:09:25.647Z,0.40
2019-01-25T07:11:55.679Z,0.40
2019-01-25T07:14:25.478Z,0.40
2019-01-25T07:16:55.411Z,0.40
2019-01-25T07:19:25.493Z,0.40
2019-01-25T07:21:55.666Z,0.40
2019-01-25T07:24:25.684Z,0.50
2019-01-25T07:26:55.540Z,0.50
2019-01-25T07:29:25.629Z,0.40
2019-01-25T07:31:55.654Z,0.50
2019-01-25T07:34:25.737Z,0.50
2019-01-25T07:37:07.016Z,0.60
2019-01-25T07:39:49.688Z,0.70
2019-01-25T07:42:27.230Z,0.60
2019-01-25T07:45:07.123Z,0.70
2019-01-25T07:47:52.635Z,0.70
2019-01-25T07:50:32.659Z,0.70
2019-01-25T07:53:14.571Z,0.70
2019-01-25T07:55:44.847Z,0.60
2019-01-25T07:58:15.206Z,0.60
2019-01-25T08:00:45.393Z,0.60
2019-01-25T08:03:15.368Z,0.60
2019-01-25T08:05:45.392Z,0.60
2019-01-25T08:08:15.524Z,0.60
2019-01-25T08:10:45.698Z,0.60
2019-01-25T08:13:15.713Z,0.60
2019-01-25T08:15:45.696Z,0.60
2019-01-25T08:18:15.887Z,0.70
2019-01-25T08:20:46.059Z,0.70
2019-01-25T08:23:15.941Z,0.80
2019-01-25T08:25:46.324Z,0.80
2019-01-25T08:28:16.777Z,0.80
2019-01-25T08:30:47.242Z,0.80
2019-01-25T08:33:17.454Z,0.80
2019-01-25T08:35:47.784Z,0.90
2019-01-25T08:38:18.086Z,0.90
2019-01-25T08:40:50.015Z,0.90
2019-01-25T08:43:20.069Z,0.90
2019-01-25T08:45:50.325Z,1.00
2019-01-25T08:48:20.064Z,1.10
2019-01-25T08:50:50.522Z,1.10
2019-01-25T08:53:20.692Z,1.20
2019-01-25T08:55:50.690Z,1.30
2019-01-25T08:58:21.023Z,1.40
2019-01-25T09:00:51.929Z,1.40
2019-01-25T09:03:22.452Z,1.40
2019-01-25T09:05:53.168Z,1.40
2019-01-25T09:08:23.372Z,1.40
2019-01-25T09:10:53.329Z,1.40
2019-01-25T09:13:23.195Z,1.50
2019-01-25T09:15:53.210Z,1.60
2019-01-25T09:18:23.502Z,1.70
2019-01-25T09:20:53.647Z,1.70
2019-01-25T09:23:23.717Z,1.80
2019-01-25T09:26:00.742Z,1.90
2019-01-25T09:28:25.587Z,1.90
2019-01-25T09:30:55.711Z,2.00
2019-01-25T09:33:25.704Z,2.10
2019-01-25T09:35:55.920Z,2.20
2019-01-25T09:38:26.282Z,2.30
2019-01-25T09:40:56.459Z,2.30
2019-01-25T09:43:26.429Z,2.30
2019-01-25T09:45:56.522Z,2.40
2019-01-25T09:48:26.631Z,2.30
2019-01-25T09:50:56.709Z,2.30
2019-01-25T09:53:26.914Z,2.20
2019-01-25T09:55:56.965Z,2.10
2019-01-25T09:58:27.141Z,2.00
2019-01-25T10:01:03.773Z,2.00
2019-01-25T10:03:33.661Z,2.10
2019-01-25T10:06:04.102Z,2.10
2019-01-25T10:08:34.551Z,2.20
2019-01-25T10:11:04.513Z,2.20
2019-01-25T10:13:34.806Z,2.20
2019-01-25T10:16:05.207Z,2.30
2019-01-25T10:18:35.131Z,2.40
2019-01-25T10:21:05.093Z,2.40
2019-01-25T10:23:39.044Z,2.40
2019-01-25T10:26:07.214Z,2.40
2019-01-25T10:28:38.799Z,2.40
2019-01-25T10:31:08.997Z,2.50
2019-01-25T10:33:39.573Z,2.50
2019-01-25T10:36:09.726Z,2.60
2019-01-25T10:38:39.868Z,2.80
2019-01-25T10:41:09.985Z,2.90
2019-01-25T10:43:39.930Z,3.10
2019-01-25T10:46:10.084Z,3.30
2019-01-25T10:48:40.460Z,3.40
2019-01-25T10:51:10.572Z,3.60
2019-01-25T10:53:40.898Z,3.70
2019-01-25T10:56:11.024Z,3.70
2019-01-25T10:58:41.100Z,3.70
2019-01-25T11:01:11.015Z,4.00
2019-01-25T11:03:41.303Z,4.50
2019-01-25T11:06:11.266Z,5.10
2019-01-25T11:08:41.636Z,5.20
2019-01-25T11:11:11.693Z,4.90
2019-01-25T11:13:41.599Z,4.80
2019-01-25T11:16:12.059Z,4.70
2019-01-25T11:18:42.459Z,4.60
2019-01-25T11:21:14.801Z,4.60
2019-01-25T11:23:44.750Z,4.70
2019-01-25T11:26:15.062Z,5.30
2019-01-25T11:28:44.905Z,5.80
2019-01-25T11:31:15.293Z,6.20
2019-01-25T11:33:45.122Z,6.20
2019-01-25T11:36:15.969Z,5.70
2019-01-25T11:38:46.212Z,5.40
2019-01-25T11:41:16.366Z,5.20
2019-01-25T11:43:46.354Z,5.20
2019-01-25T11:46:16.395Z,5.40
2019-01-25T11:48:46.370Z,5.90
2019-01-25T11:51:20.240Z,6.40
2019-01-25T11:53:50.405Z,6.70
2019-01-25T11:56:20.404Z,7.20
2019-01-25T11:58:50.552Z,7.40
2019-01-25T12:01:20.744Z,7.50
2019-01-25T12:03:52.152Z,7.50
2019-01-25T12:06:22.278Z,7.10
2019-01-25T12:08:52.443Z,6.50
2019-01-25T12:11:22.550Z,5.80
2019-01-25T12:13:52.820Z,5.30
2019-01-25T12:16:25.058Z,5.10
2019-01-25T12:18:54.831Z,5.60
2019-01-25T12:21:24.915Z,5.70
2019-01-25T12:23:55.122Z,5.80
2019-01-25T12:26:25.425Z,6.20
2019-01-25T12:28:55.628Z,6.80
2019-01-25T12:31:26.168Z,7.40
2019-01-25T12:33:56.301Z,7.90
2019-01-25T12:36:26.161Z,7.70
2019-01-25T12:38:56.427Z,7.30
2019-01-25T12:41:26.408Z,6.90
2019-01-25T12:43:56.819Z,6.50
2019-01-25T12:46:26.755Z,6.60
2019-01-25T12:48:57.118Z,6.90
2019-01-25T12:51:32.415Z,7.40
2019-01-25T12:54:09.533Z,8.30
2019-01-25T12:56:39.647Z,9.00
2019-01-25T12:59:09.560Z,9.50
2019-01-25T13:01:41.171Z,9.50
2019-01-25T13:04:11.185Z,9.00
2019-01-25T13:06:41.575Z,9.10
2019-01-25T13:09:12.288Z,9.10
2019-01-25T13:11:42.590Z,9.10
2019-01-25T13:14:13.368Z,9.50
2019-01-25T13:16:43.440Z,9.60
2019-01-25T13:19:13.372Z,9.70
2019-01-25T13:21:43.186Z,9.70
2019-01-25T13:24:13.620Z,9.90
2019-01-25T13:26:44.837Z,9.90
2019-01-25T13:29:14.995Z,9.80
2019-01-25T13:31:44.766Z,9.40
2019-01-25T13:34:15.243Z,9.20
2019-01-25T13:36:58.822Z,8.70
2019-01-25T13:39:28.955Z,8.20
2019-01-25T13:41:58.878Z,8.10
2019-01-25T13:44:30.370Z,8.00
2019-01-25T13:47:00.957Z,7.80
2019-01-25T13:49:30.905Z,7.60
2019-01-25T13:52:01.059Z,7.40
2019-01-25T13:54:31.313Z,7.30
2019-01-25T13:57:01.528Z,7.40
2019-01-25T13:59:31.604Z,7.50
2019-01-25T14:02:01.966Z,7.30
2019-01-25T14:04:32.223Z,7.20
2019-01-25T14:07:02.289Z,7.00
2019-01-25T14:09:32.267Z,6.90
2019-01-25T14:12:02.432Z,6.80
2019-01-25T14:14:32.489Z,6.60
2019-01-25T14:17:02.770Z,6.50
2019-01-25T14:19:32.846Z,6.40
2019-01-25T14:22:02.607Z,6.30
2019-01-25T14:24:34.018Z,6.20
2019-01-25T14:27:04.516Z,6.10
2019-01-25T14:29:34.354Z,6.00
2019-01-25T14:32:04.571Z,5.80
2019-01-25T14:34:34.666Z,5.80
2019-01-25T14:37:04.649Z,5.70
2019-01-25T14:39:34.825Z,5.60
2019-01-25T14:42:04.946Z,5.40
2019-01-25T14:44:35.356Z,5.40
2019-01-25T14:47:05.571Z,5.40
2019-01-25T14:49:35.432Z,5.50
2019-01-25T14:52:05.989Z,5.50
2019-01-25T14:54:35.847Z,5.50
2019-01-25T14:57:06.146Z,5.50
2019-01-25T14:59:36.108Z,5.60
2019-01-25T15:02:06.164Z,5.60
2019-01-25T15:04:36.463Z,5.70
2019-01-25T15:07:12.304Z,5.70
2019-01-25T15:09:42.463Z,5.70
2019-01-25T15:12:12.895Z,5.60
2019-01-25T15:14:43.150Z,5.40
2019-01-25T15:17:15.179Z,5.30
2019-01-25T15:19:47.270Z,5.10
2019-01-25T15:22:17.476Z,5.10
2019-01-25T15:24:47.394Z,5.00
2019-01-25T15:27:17.827Z,5.00
2019-01-25T15:29:47.786Z,5.00
2019-01-25T15:32:18.656Z,4.90
2019-01-25T15:34:48.761Z,4.80
2019-01-25T15:37:18.686Z,4.70
2019-01-25T15:39:48.544Z,4.70
2019-01-25T15:42:18.628Z,4.60
2019-01-25T15:44:48.854Z,4.60
2019-01-25T15:47:18.951Z,4.50
2019-01-25T15:49:48.843Z,4.50
2019-01-25T15:52:19.324Z,4.40
2019-01-25T15:54:49.172Z,4.40
2019-01-25T15:57:19.351Z,4.40
2019-01-25T15:59:49.434Z,4.40
2019-01-25T16:02:19.742Z,4.40
2019-01-25T16:04:49.695Z,4.30
2019-01-25T16:07:20.063Z,4.30
2019-01-25T16:09:51.042Z,4.20
2019-01-25T16:12:21.367Z,4.20
2019-01-25T16:14:51.535Z,4.20
2019-01-25T16:17:22.106Z,4.20
2019-01-25T16:19:54.137Z,4.20
2019-01-25T16:22:24.925Z,4.10
2019-01-25T16:24:55.339Z,4.10
2019-01-25T16:27:25.875Z,4.10
2019-01-25T16:29:56.293Z,4.00
2019-01-25T16:32:26.558Z,4.00
2019-01-25T16:34:57.212Z,4.00
2019-01-25T16:37:27.667Z,4.00
2019-01-25T16:39:57.974Z,4.00
2019-01-25T16:42:28.229Z,4.00
2019-01-25T16:44:58.655Z,4.00
2019-01-25T16:47:28.933Z,4.00
2019-01-25T16:49:59.460Z,3.90
2019-01-25T16:52:29.930Z,3.90
2019-01-25T16:55:00.244Z,3.90
2019-01-25T16:57:30.677Z,3.90
2019-01-25T17:00:00.869Z,3.90
2019-01-25T17:02:31.266Z,3.90
2019-01-25T17:05:01.550Z,3.90
2019-01-25T17:07:31.901Z,3.90
2019-01-25T17:10:02.432Z,3.90
2019-01-25T17:12:32.902Z,3.90
2019-01-25T17:15:03.441Z,3.90
2019-01-25T17:17:34.142Z,3.90
2019-01-25T17:20:06.320Z,3.90
2019-01-25T17:22:36.756Z,3.80
2019-01-25T17:25:07.927Z,3.80
2019-01-25T17:27:38.232Z,3.70
2019-01-25T17:30:12.865Z,3.70
2019-01-25T17:32:43.272Z,3.70
2019-01-25T17:35:13.780Z,3.60
2019-01-25T17:37:44.348Z,3.60
2019-01-25T17:40:16.778Z,3.60
2019-01-25T17:42:47.467Z,3.50
2019-01-25T17:45:18.001Z,3.50
2019-01-25T17:47:48.749Z,3.40
2019-01-25T17:50:19.177Z,3.40
2019-01-25T17:52:49.577Z,3.30
2019-01-25T17:55:19.972Z,3.30
2019-01-25T17:57:50.587Z,3.30
2019-01-25T18:00:30.026Z,3.20
2019-01-25T18:03:00.552Z,3.10
2019-01-25T18:05:31.398Z,3.00
2019-01-25T18:08:01.673Z,3.00
2019-01-25T18:10:32.471Z,2.90
2019-01-25T18:13:02.924Z,2.90
2019-01-25T18:15:33.461Z,2.90
2019-01-25T18:18:04.295Z,2.90
2019-01-25T18:20:34.745Z,2.90
2019-01-25T18:23:05.018Z,2.90
2019-01-25T18:25:39.584Z,2.80
2019-01-25T18:28:13.189Z,2.90
2019-01-25T18:30:50.009Z,2.90
2019-01-25T18:33:20.316Z,2.90
2019-01-25T18:35:50.800Z,2.90
2019-01-25T18:38:21.277Z,2.90
2019-01-25T18:40:51.769Z,2.90
2019-01-25T18:43:22.081Z,2.90
2019-01-25T18:45:52.425Z,2.90
2019-01-25T18:48:22.983Z,3.00
2019-01-25T18:50:53.657Z,3.00
2019-01-25T18:53:24.225Z,3.00
2019-01-25T18:55:54.731Z,3.00
2019-01-25T18:58:25.137Z,3.00
2019-01-25T19:00:55.976Z,3.00
2019-01-25T19:03:26.496Z,3.10
2019-01-25T19:05:57.137Z,3.10
2019-01-25T19:08:27.590Z,3.10
2019-01-25T19:10:58.105Z,3.10
2019-01-25T19:13:28.539Z,3.10
2019-01-25T19:15:59.015Z,3.10
2019-01-25T19:18:29.395Z,3.10
2019-01-25T19:21:00.009Z,3.10
2019-01-25T19:23:30.358Z,3.10
2019-01-25T19:26:01.128Z,3.20
2019-01-25T19:28:31.407Z,3.20
2019-01-25T19:31:01.930Z,3.20
2019-01-25T19:33:32.143Z,3.20
2019-01-25T19:36:02.983Z,3.20
2019-01-25T19:38:33.564Z,3.20
2019-01-25T19:41:04.254Z,3.10
2019-01-25T19:43:34.659Z,3.20
2019-01-25T19:46:05.819Z,3.10
2019-01-25T19:48:36.219Z,3.10
2019-01-25T19:51:06.691Z,3.10
2019-01-25T19:53:37.327Z,3.10
2019-01-25T19:56:08.377Z,3.10
2019-01-25T19:58:39.036Z,3.10
2019-01-25T20:01:09.515Z,3.10
2019-01-25T20:03:40.025Z,3.20
2019-01-25T20:06:10.702Z,3.20
2019-01-25T20:08:41.223Z,3.10
2019-01-25T20:11:12.025Z,3.20
2019-01-25T20:13:42.389Z,3.20
2019-01-25T20:16:12.950Z,3.10
2019-01-25T20:18:44.077Z,3.10
2019-01-25T20:21:14.480Z,3.10
2019-01-25T20:23:45.130Z,3.10
2019-01-25T20:26:15.777Z,3.10
2019-01-25T20:28:46.116Z,3.10
2019-01-25T20:31:16.393Z,3.00
2019-01-25T20:33:46.692Z,3.10
2019-01-25T20:36:17.201Z,3.10
2019-01-25T20:38:47.507Z,3.00
2019-01-25T20:41:17.962Z,3.00
2019-01-25T20:43:48.393Z,3.00
2019-01-25T20:46:18.815Z,3.00
2019-01-25T20:48:49.234Z,2.90
2019-01-25T20:51:19.777Z,2.80
2019-01-25T20:53:50.328Z,2.70
2019-01-25T20:56:20.980Z,2.70
2019-01-25T20:58:51.737Z,2.70
2019-01-25T21:01:23.792Z,2.70
2019-01-25T21:03:54.651Z,2.70
2019-01-25T21:06:25.892Z,2.60
2019-01-25T21:08:56.219Z,2.70
2019-01-25T21:11:26.601Z,2.70
2019-01-25T21:13:56.997Z,2.70
2019-01-25T21:16:27.377Z,2.70
2019-01-25T21:18:57.933Z,2.70
2019-01-25T21:21:28.521Z,2.70
2019-01-25T21:23:58.857Z,2.70
2019-01-25T21:26:29.272Z,2.60
2019-01-25T21:28:59.727Z,2.70
2019-01-25T21:31:30.013Z,2.70
2019-01-25T21:34:00.367Z,2.60
2019-01-25T21:36:30.764Z,2.60
2019-01-25T21:39:01.336Z,2.60
2019-01-25T21:41:31.944Z,2.60
2019-01-25T21:44:02.813Z,2.60
2019-01-25T21:46:40.043Z,2.60
2019-01-25T21:49:05.593Z,2.60
2019-01-25T21:51:35.826Z,2.60
2019-01-25T21:54:06.468Z,2.60
2019-01-25T21:56:36.612Z,2.60
2019-01-25T21:59:06.847Z,2.60
2019-01-25T22:01:37.288Z,2.60
2019-01-25T22:04:07.523Z,2.60
2019-01-25T22:06:37.655Z,2.60
2019-01-25T22:09:09.157Z,2.60
2019-01-25T22:11:39.007Z,2.60
2019-01-25T22:14:08.962Z,2.60
2019-01-25T22:16:39.085Z,2.60
2019-01-25T22:19:09.377Z,2.60
2019-01-25T22:21:39.391Z,2.60
2019-01-25T22:24:09.417Z,2.60
2019-01-25T22:26:39.475Z,2.60
2019-01-25T22:29:09.639Z,2.70
2019-01-25T22:31:39.401Z,2.70
2019-01-25T22:34:09.745Z,2.70
2019-01-25T22:36:39.755Z,2.80
2019-01-25T22:39:09.622Z,2.80
2019-01-25T22:41:39.425Z,2.80
2019-01-25T22:44:09.188Z,2.80
2019-01-25T22:46:39.116Z,2.80
2019-01-25T22:49:10.598Z,2.80
2019-01-25T22:51:40.583Z,2.80
2019-01-25T22:54:10.705Z,2.80
2019-01-25T22:56:40.817Z,2.80
2019-01-25T22:59:10.943Z,2.80
2019-01-25T23:01:41.259Z,2.80
2019-01-25T23:04:47.734Z,2.80
2019-01-25T23:07:23.429Z,2.80
2019-01-25T23:09:59.024Z,2.80
2019-01-25T23:12:28.810Z,2.80
2019-01-25T23:14:58.597Z,2.90
2019-01-25T23:17:30.169Z,2.90
2019-01-25T23:19:59.934Z,2.90
2019-01-25T23:22:29.690Z,2.90
2019-01-25T23:24:59.552Z,2.90
2019-01-25T23:27:29.409Z,3.00
2019-01-25T23:29:59.299Z,3.00
2019-01-25T23:32:29.348Z,3.00
2019-01-25T23:34:59.507Z,3.00
2019-01-25T23:37:29.299Z,3.10
2019-01-25T23:39:59.258Z,3.10
2019-01-25T23:42:29.196Z,3.10
2019-01-25T23:44:58.996Z,3.20
2019-01-25T23:47:28.827Z,3.20
2019-01-25T23:49:58.997Z,3.20
2019-01-25T23:52:30.725Z,3.20
2019-01-25T23:55:00.612Z,3.20
2019-01-25T23:57:30.443Z,3.20
